Hauptseite
METAR-TAF:

METAR-TAF

Flughäfen :

Koror, Babeldaob, Palau

Flughafen Koror

Breite: 07-22N, Länge: 134-32E, Höhe: 54 m

Beobachtung

Neuester Wetterbericht von vor 30 Minuten, um 17:50 UTC
Windstille
Temperatur 25°C
Luftfeuchtigkeit 89%
Luftdruck 1007 hPa
Sichtweite: 24.1 km
Leicht bewölkt in der Höhe von 1600 ft
Aufgelockert bewölkt in der Höhe von 30000 ft

METAR: PTRO 221750Z 00000KT 15SM FEW016 SCT300 25/23 A2974

Zeit: 03:20 (18:20 UTC)

Prognose

Neuester Wetterbericht von vor 49 Minuten, um 17:31 UTC
Gültige Prognose vom 22 um 18 UTC bis 23 um 18 UTC
Wind 8 kt aus Ost/Nordost
Sichtweite: 10 km
Aufgelockert bewölkt in der Höhe von 1600 ft
Aufgelockert bewölkt in der Höhe von 12000 ft
Schauer in der Nähe

TAF: PTRO 221731Z 2218/2318 07008KT P6SM VCSH SCT016 SCT120

Wetterbeobachtungen und Prognosen von mehr als 4000 Flughäfen (METAR und TAF Bericht).

Die verfügbaren Stationen werden durch gelbe und rote Markierungen auf der Karte dargestellt.

Führen Sie die Maus auf sie, um den Namen der Station zu sehen.

Darauf klicken, um die Beobachtung von Wetterbeobachtungen und Prognosen zu sehen.

Um die Karte zu ändern : klicken Sie auf den grünen Tasten mit einem schwarzen Kreuz Zum Vergrößern, auf den grünen Button mit einem Gedankenstrich zu verkleinern, oder auf die grünen Pfeile für benachbarte Karten.


METAR-TAF: